Pittsburgh, PA (15233)

7:07 PM EST on March 06, 2015 (GMT -0500)
Brighton Heights | Change Station
CLOSE
Current Station
Personal Weather Station
Location: Pittsburgh, PA
Elevation: 906 ft
Nearby Weather Stations

Elev 906 ft 40.48 °N, 80.04 °W | Updated 10 minutes ago

Partly Cloudy
Partly Cloudy
22.1 °F
Feels Like 17 °F
N
3.7
Wind Variable Wind from NE

Today
High -- | Low -- °F
--% Chance of Precip.
Yesterday
High -- | Low -- °F
Precip. -- in
6:46 AM 6:16 PM
Full, 99% visible
Pressure 30.42 in
Visibility -9999.0 miles
Clouds Clear
Windchill 17 °F
Dew Point 11 °F
Humidity 61%
Rainfall in
Snow Depth Not available.
UV 0 out of 12
Pollen .30 out of 12
Air Quality Not available.
Flu Activity Not available.
METAR KAGC 062353Z AUTO 19006KT CLR M06/M13 A3032 RMK AO2 SLP300 T10611128 11050 21089 56017 TSNO $

More Conditions Fewer Conditions

Pressure 30.42 in
Visibility -9999.0 miles
Clouds Clear
Windchill 17 °F
Dew Point 11 °F
Humidity 61%
Rainfall in
Snow Depth Not available.
UV 0 out of 12
Pollen .30 out of 12
Air Quality Not available.
Flu Activity Not available.
METAR KAGC 062353Z AUTO 19006KT CLR M06/M13 A3032 RMK AO2 SLP300 T10611128 11050 21089 56017 TSNO $

More Conditions Fewer Conditions

10-Day Weather Forecast

Almanac

Astronomy

Mar. 06, 2015 Rise Set
Actual Time
Civil Twilight
Nautical Twilight
Astronomical Twilight
Moon
Length of Visible Light
Length of Day
Tomorrow will be .
, % of the Moon is Illuminated

Today's Extremes

State Highs State Lows

Community

WunderPhotos

Upload Photos

1,803,460 photos uploaded!

WunderBlogs® & News

Nearby

Air Quality

  Air Quality AQ Index Pollutant
Not available.

Snow Depth

Station Depth Elevation

Earthquake Activity

City Distance Mag. Time & Date
Minimum magnitude displayed is 2.5.

Coastal Water Temperatures

Place Temperature

Nearby Weather Stations